createdAt,value
2023-05-17T00:07:32.019Z,0.83
2023-05-17T00:17:34.280Z,1.50
2023-05-17T00:27:36.561Z,1.33
2023-05-17T00:37:38.667Z,1.70
2023-05-17T00:47:40.959Z,1.30
2023-05-17T00:57:43.192Z,2.00
2023-05-17T01:07:45.350Z,1.80
2023-05-17T01:17:59.107Z,1.93
2023-05-17T01:28:02.675Z,1.67
2023-05-17T01:38:04.789Z,1.70
2023-05-17T01:48:28.892Z,2.10
2023-05-17T01:58:40.631Z,1.73
2023-05-17T02:08:43.130Z,2.53
2023-05-17T02:18:45.573Z,2.53
2023-05-17T02:28:48.043Z,2.10
2023-05-17T02:38:50.662Z,4.23
2023-05-17T02:48:52.827Z,5.23
2023-05-17T02:58:57.485Z,4.67
2023-05-17T03:08:59.604Z,4.23
2023-05-17T03:19:02.119Z,3.57
2023-05-17T03:29:05.158Z,3.40
2023-05-17T03:39:07.976Z,3.00
2023-05-17T03:49:12.124Z,3.67
2023-05-17T03:59:15.842Z,3.10
2023-05-17T04:09:21.233Z,3.43
2023-05-17T04:19:23.676Z,4.23
2023-05-17T04:29:26.448Z,4.57
2023-05-17T04:39:30.746Z,3.80
2023-05-17T04:49:34.535Z,5.17
2023-05-17T04:59:37.597Z,4.05
2023-05-17T05:09:40.772Z,3.80
2023-05-17T05:19:45.732Z,4.50
2023-05-17T05:29:48.934Z,3.80
2023-05-17T05:39:52.588Z,3.43
2023-05-17T05:49:55.321Z,3.03
2023-05-17T05:59:59.452Z,2.60
2023-05-17T06:10:01.870Z,3.40
2023-05-17T06:20:05.176Z,4.37
2023-05-17T06:30:08.138Z,3.53
2023-05-17T06:40:16.604Z,2.40
2023-05-17T06:50:19.340Z,2.10
2023-05-17T07:00:22.037Z,1.47
2023-05-17T07:10:24.172Z,1.53
2023-05-17T07:20:26.329Z,1.37
2023-05-17T07:30:28.488Z,1.73
2023-05-17T07:40:30.717Z,1.23
2023-05-17T07:50:33.027Z,1.38
2023-05-17T08:00:35.166Z,1.30
2023-05-17T08:10:38.034Z,1.10
2023-05-17T08:20:40.216Z,1.30
2023-05-17T08:30:42.421Z,1.40
2023-05-17T08:40:44.537Z,1.30
2023-05-17T08:50:47.442Z,1.13
2023-05-17T09:00:50.044Z,1.23
2023-05-17T09:10:52.200Z,1.13
2023-05-17T09:20:54.335Z,1.17
2023-05-17T09:30:56.611Z,1.13
2023-05-17T09:41:02.534Z,1.25
2023-05-17T09:51:05.997Z,0.90
2023-05-17T10:01:09.726Z,1.00
2023-05-17T10:11:11.983Z,1.10
2023-05-17T10:21:14.438Z,1.40
2023-05-17T10:31:17.376Z,1.30
2023-05-17T10:41:21.891Z,0.95
2023-05-17T10:51:26.506Z,1.48
2023-05-17T11:02:00.832Z,1.30
2023-05-17T11:12:08.095Z,1.10
2023-05-17T11:22:12.291Z,0.82
2023-05-17T11:32:14.545Z,1.08
2023-05-17T11:42:25.340Z,1.40
2023-05-17T11:52:29.220Z,1.40
2023-05-17T12:02:32.388Z,0.88
2023-05-17T12:12:34.600Z,0.80
2023-05-17T12:22:54.937Z,1.02
2023-05-17T12:32:57.268Z,0.90
2023-05-17T12:43:05.855Z,1.25
2023-05-17T12:53:09.058Z,1.45
2023-05-17T13:03:11.656Z,0.80
2023-05-17T13:13:20.437Z,1.27
2023-05-17T13:23:22.600Z,0.90
2023-05-17T13:33:24.860Z,1.10
2023-05-17T13:43:27.157Z,0.63
2023-05-17T13:53:29.533Z,0.95
2023-05-17T14:03:31.882Z,0.95
2023-05-17T14:13:34.264Z,1.30
2023-05-17T14:23:36.406Z,2.03
2023-05-17T14:33:38.654Z,1.38
2023-05-17T14:43:40.950Z,1.77
2023-05-17T14:53:43.211Z,1.38
2023-05-17T15:03:45.446Z,1.60
2023-05-17T15:13:48.761Z,1.33
2023-05-17T15:23:51.087Z,1.52
2023-05-17T15:33:53.254Z,3.08
2023-05-17T15:43:55.429Z,3.47
2023-05-17T15:53:57.602Z,1.95
2023-05-17T16:03:59.836Z,1.95
2023-05-17T16:14:02.118Z,2.60
2023-05-17T16:24:06.510Z,1.88
2023-05-17T16:34:08.880Z,2.20
2023-05-17T16:44:11.140Z,2.72
2023-05-17T16:54:13.292Z,2.03
2023-05-17T17:04:15.604Z,2.17
2023-05-17T17:14:18.006Z,1.83
2023-05-17T17:24:20.426Z,2.30
2023-05-17T17:34:22.580Z,1.60
2023-05-17T17:44:24.755Z,1.48
2023-05-17T17:54:27.000Z,1.83
2023-05-17T18:04:29.180Z,1.42
2023-05-17T18:14:31.446Z,1.83
2023-05-17T18:24:33.602Z,1.70
2023-05-17T18:34:36.223Z,0.98
2023-05-17T18:44:41.368Z,1.58
2023-05-17T18:54:43.922Z,1.25
2023-05-17T19:04:46.151Z,1.10
2023-05-17T19:14:48.274Z,1.87
2023-05-17T19:24:50.728Z,1.52
2023-05-17T19:34:53.329Z,2.10
2023-05-17T19:44:55.607Z,1.48
2023-05-17T19:54:57.693Z,1.05
2023-05-17T20:05:02.192Z,1.63
2023-05-17T20:15:06.227Z,1.50
2023-05-17T20:25:08.934Z,1.05
2023-05-17T20:35:11.430Z,1.20
2023-05-17T20:45:17.739Z,1.07
2023-05-17T20:55:19.961Z,1.30
2023-05-17T21:05:22.032Z,1.08
2023-05-17T21:15:24.941Z,1.17
2023-05-17T21:25:27.124Z,1.38
2023-05-17T21:35:29.738Z,1.37
2023-05-17T21:45:31.906Z,1.70
2023-05-17T21:55:41.249Z,1.43
2023-05-17T22:05:56.233Z,1.30
2023-05-17T22:15:58.324Z,1.50
2023-05-17T22:26:00.664Z,1.40
2023-05-17T22:36:03.692Z,1.53
2023-05-17T22:46:06.197Z,1.30
2023-05-17T22:56:08.299Z,1.30
2023-05-17T23:06:10.694Z,0.80
2023-05-17T23:16:13.939Z,1.20
2023-05-17T23:26:17.192Z,1.40
2023-05-17T23:36:21.639Z,1.30
2023-05-17T23:46:23.843Z,1.83
2023-05-17T23:56:26.605Z,2.00
